Time;durP1;ratioP1;P1;durP2;ratioP2;P2;SDS_P1;SDS_P2;PMS_P1;PMS_P2;Temp;Humidity;BMP_temperature;BMP_pressure;BME280_temperature;BME280_humidity;BME280_pressure;Samples;Min_cycle;Max_cycle;Signal;HPM_P1;HPM_P2
2020/12/02 00:01:24;;;;;;;18.97;9.07;;;;;;;1.00;82.29;100658.08;1778900;78;21639;-58
2020/12/02 00:04:06;;;;;;;14.17;8.43;;;;;;;1.03;82.26;100654.10;1776461;78;21193;-58
2020/12/02 00:06:33;;;;;;;14.00;9.27;;;;;;;1.08;82.14;100655.03;1778247;78;21297;-58
2020/12/02 00:09:15;;;;;;;13.27;8.67;;;;;;;1.09;82.01;100662.55;1783891;78;21126;-58
2020/12/02 00:11:43;;;;;;;16.07;9.97;;;;;;;1.04;81.95;100665.16;1781475;78;21130;-58
2020/12/02 00:14:15;;;;;;;15.53;9.53;;;;;;;1.02;81.98;100660.75;1780577;78;21166;-57
2020/12/02 00:16:42;;;;;;;13.07;7.67;;;;;;;1.03;81.94;100667.36;1780857;78;21084;-58
2020/12/02 00:19:10;;;;;;;10.70;7.20;;;;;;;1.05;81.92;100662.95;1784617;78;21385;-58
2020/12/02 00:21:37;;;;;;;11.53;7.07;;;;;;;1.08;81.91;100663.42;1786489;78;21213;-58
2020/12/02 00:24:04;;;;;;;8.13;5.67;;;;;;;1.10;81.85;100659.02;1786395;78;21217;-58
2020/12/02 00:26:31;;;;;;;13.30;8.13;;;;;;;1.12;81.83;100657.23;1782743;78;21185;-58
2020/12/02 00:28:59;;;;;;;9.87;6.03;;;;;;;1.11;81.76;100658.11;1787055;78;21162;-58
2020/12/02 00:31:26;;;;;;;7.43;5.60;;;;;;;1.05;81.75;100668.70;1788176;78;21197;-58
2020/12/02 00:33:54;;;;;;;9.93;6.23;;;;;;;1.02;81.88;100666.05;1787305;78;21251;-57
2020/12/02 00:36:21;;;;;;;8.70;5.63;;;;;;;1.01;81.87;100671.80;1768851;79;21174;-58
2020/12/02 00:38:48;;;;;;;9.00;5.23;;;;;;;1.02;81.81;100671.36;1767940;79;21484;-59
2020/12/02 00:41:15;;;;;;;7.07;4.60;;;;;;;1.04;81.78;100662.50;1759313;80;21242;-58
2020/12/02 00:43:42;;;;;;;6.73;4.80;;;;;;;1.07;81.77;100669.16;1755396;80;23603;-57
2020/12/02 00:46:10;;;;;;;9.10;5.63;;;;;;;1.08;81.69;100662.09;1741307;79;21194;-59
2020/12/02 00:48:37;;;;;;;5.70;5.10;;;;;;;1.06;81.69;100659.43;1718877;78;21174;-58
2020/12/02 00:51:05;;;;;;;4.47;3.80;;;;;;;1.01;81.60;100660.30;1789000;78;21207;-58
2020/12/02 00:53:34;;;;;;;5.80;3.70;;;;;;;0.98;81.73;100665.58;1771297;78;20977;-58
2020/12/02 00:56:02;;;;;;;6.70;3.60;;;;;;;0.99;81.75;100666.03;1772239;79;21216;-58
2020/12/02 00:58:48;;;;;;;5.93;3.33;;;;;;;1.00;81.72;100663.83;1783134;78;21410;-57
2020/12/02 01:01:21;;;;;;;5.42;3.05;;;;;;;0.99;81.74;100662.94;1765039;80;21192;-58
2020/12/02 01:03:48;;;;;;;4.33;2.60;;;;;;;1.02;81.72;100664.73;1765932;78;21517;-57
2020/12/02 01:06:16;;;;;;;3.40;2.23;;;;;;;1.02;81.75;100664.73;1759060;80;21271;-58
2020/12/02 01:08:45;;;;;;;5.30;3.23;;;;;;;1.03;81.71;100654.53;1755663;80;21388;-59
2020/12/02 01:11:51;;;;;;;7.30;4.23;;;;;;;1.03;81.69;100663.38;1758640;80;21253;-57
2020/12/02 01:14:18;;;;;;;5.13;2.80;;;;;;;0.99;81.63;100660.72;1730013;81;21571;-59
2020/12/02 01:16:48;;;;;;;4.23;2.97;;;;;;;0.95;81.72;100654.94;1730013;81;21215;-57
2020/12/02 01:19:25;;;;;;;3.70;2.20;;;;;;;0.95;81.72;100654.94;1734552;81;21205;-58
2020/12/02 01:21:59;;;;;;;4.53;2.33;;;;;;;0.97;81.70;100652.75;1731817;80;22347;-58
2020/12/02 01:24:36;;;;;;;3.52;2.42;;;;;;;1.01;81.74;100655.88;1737134;80;21126;-59
2020/12/02 01:27:26;;;;;;;4.33;3.30;;;;;;;1.04;81.72;100649.25;1746586;80;21155;-58
2020/12/02 01:29:53;;;;;;;5.13;3.57;;;;;;;1.05;81.70;100648.81;1715942;82;21046;-59
2020/12/02 01:32:20;;;;;;;4.40;3.20;;;;;;;1.05;81.60;100645.72;1770725;79;21225;-58
2020/12/02 01:34:49;;;;;;;5.90;3.47;;;;;;;1.05;81.59;100643.51;1770220;79;21711;-58
2020/12/02 01:37:36;;;;;;;4.10;3.10;;;;;;;1.03;81.56;100642.61;1775317;79;21146;-58
2020/12/02 01:40:22;;;;;;;7.20;3.20;;;;;;;1.04;81.54;100641.73;1768367;79;21207;-59
2020/12/02 01:43:00;;;;;;;4.90;2.33;;;;;;;1.03;81.53;100639.52;1769927;79;21487;-58
2020/12/02 01:45:40;;;;;;;6.77;3.87;;;;;;;1.08;81.53;100636.47;1817870;76;26565;-57
2020/12/02 01:48:28;;;;;;;6.50;3.42;;;;;;;1.04;81.54;100639.08;1794590;77;21213;-58
2020/12/02 01:51:29;;;;;;;9.90;4.80;;;;;;;1.06;81.53;100635.56;1797001;78;21488;-58
2020/12/02 01:54:04;;;;;;;8.40;4.60;;;;;;;1.03;81.33;100630.67;1790601;78;21506;-59
2020/12/02 01:56:58;;;;;;;8.00;3.63;;;;;;;0.91;81.40;100631.97;1797398;78;20969;-59
2020/12/02 02:00:08;;;;;;;5.40;3.25;;;;;;;0.89;81.51;100626.66;1792272;78;21052;-58
2020/12/02 02:03:13;;;;;;;5.75;3.08;;;;;;;0.89;81.50;100626.66;1793850;78;21074;-58
2020/12/02 02:06:13;;;;;;;7.27;3.60;;;;;;;0.91;81.54;100624.02;1798140;79;21187;-59
2020/12/02 02:08:42;;;;;;;6.93;4.20;;;;;;;0.93;81.53;100622.27;1776112;78;21242;-58
2020/12/02 02:11:14;;;;;;;9.37;5.27;;;;;;;0.94;81.46;100622.24;1797749;78;21000;-58
2020/12/02 02:14:08;;;;;;;9.50;5.00;;;;;;;0.93;81.46;100624.48;1798050;78;21431;-58
2020/12/02 02:16:44;;;;;;;4.90;3.07;;;;;;;0.93;81.43;100619.61;1716296;79;21114;-59
2020/12/02 02:19:23;;;;;;;7.23;2.93;;;;;;;0.94;81.36;100620.92;1797337;78;21381;-59
2020/12/02 02:21:56;;;;;;;5.60;3.00;;;;;;;0.96;81.34;100620.49;1797100;78;21207;-59
2020/12/02 02:24:24;;;;;;;6.80;3.43;;;;;;;0.98;81.29;100621.39;1734483;80;21254;-58
2020/12/02 02:26:53;;;;;;;6.10;3.67;;;;;;;0.99;81.14;100624.94;1742096;81;21252;-59
2020/12/02 02:29:36;;;;;;;8.80;5.17;;;;;;;0.93;81.09;100621.83;1772275;79;21202;-60
2020/12/02 02:32:13;;;;;;;9.57;5.87;;;;;;;0.91;81.20;100621.36;1775091;79;21295;-57
2020/12/02 02:34:51;;;;;;;9.80;4.93;;;;;;;0.91;81.22;100626.67;1773290;79;21221;-57
2020/12/02 02:37:20;;;;;;;5.83;3.33;;;;;;;0.91;81.21;100627.55;1725263;79;21703;-57
2020/12/02 02:39:47;;;;;;;4.77;3.23;;;;;;;0.90;81.18;100626.22;1773584;80;21502;-57
2020/12/02 02:42:29;;;;;;;6.17;3.43;;;;;;;0.92;81.11;100620.05;1773873;80;21183;-59
2020/12/02 02:44:59;;;;;;;4.93;3.17;;;;;;;0.91;81.09;100625.34;1773097;79;21197;-57
2020/12/02 02:47:26;;;;;;;4.63;2.77;;;;;;;0.93;81.07;100623.16;1739355;81;21210;-58
2020/12/02 02:49:53;;;;;;;4.03;2.90;;;;;;;0.94;81.00;100625.33;1739573;80;21613;-56
2020/12/02 02:52:20;;;;;;;5.77;3.73;;;;;;;0.92;80.90;100630.66;1742969;80;21207;-58
2020/12/02 02:54:47;;;;;;;7.87;3.13;;;;;;;0.86;80.85;100631.04;1731186;81;21302;-57
2020/12/02 02:57:15;;;;;;;5.10;3.03;;;;;;;0.81;81.01;100626.17;1774074;79;23143;-59
2020/12/02 02:59:42;;;;;;;6.07;3.30;;;;;;;0.82;80.99;100630.59;1774970;79;21004;-59
2020/12/02 03:02:12;;;;;;;5.60;3.47;;;;;;;0.82;80.94;100630.59;1775533;79;21126;-55
2020/12/02 03:04:39;;;;;;;6.07;3.33;;;;;;;0.82;80.96;100637.22;1773655;80;21214;-59
2020/12/02 03:07:16;;;;;;;6.13;3.43;;;;;;;0.83;81.02;100630.61;1774119;79;22387;-58
2020/12/02 03:09:43;;;;;;;8.87;4.67;;;;;;;0.87;81.04;100635.47;1778974;78;22906;-56
2020/12/02 03:12:11;;;;;;;6.23;4.17;;;;;;;0.85;81.00;100638.58;1774773;78;22287;-55
2020/12/02 03:14:41;;;;;;;8.07;5.03;;;;;;;0.83;80.96;100636.34;1773864;79;21200;-57
2020/12/02 03:17:15;;;;;;;7.30;3.40;;;;;;;0.82;80.97;100633.25;1778920;78;21103;-57
2020/12/02 03:20:02;;;;;;;10.10;3.57;;;;;;;0.83;81.01;100633.26;1718489;81;21128;-55
2020/12/02 03:22:29;;;;;;;5.83;3.80;;;;;;;0.86;81.04;100635.02;1734853;81;21679;-54
2020/12/02 03:24:57;;;;;;;8.93;4.47;;;;;;;0.89;81.06;100629.74;1703038;81;21224;-57
2020/12/02 03:27:24;;;;;;;9.20;5.23;;;;;;;0.89;81.05;100631.95;1747874;80;21202;-56
2020/12/02 03:29:52;;;;;;;9.07;5.50;;;;;;;0.90;81.05;100629.75;1732721;81;21190;-56
2020/12/02 03:32:19;;;;;;;8.93;6.10;;;;;;;0.90;81.05;100641.69;1731177;81;21194;-55
2020/12/02 03:34:47;;;;;;;9.03;5.77;;;;;;;0.90;81.04;100635.49;1728191;81;21729;-56
2020/12/02 03:37:14;;;;;;;11.20;5.80;;;;;;;0.90;80.99;100628.87;1773923;78;21234;-58
2020/12/02 03:39:42;;;;;;;11.43;6.87;;;;;;;0.90;81.10;100628.43;1773825;80;21489;-56
2020/12/02 03:42:09;;;;;;;9.53;6.37;;;;;;;0.93;81.09;100625.80;1777126;80;21209;-54
2020/12/02 03:44:36;;;;;;;13.47;7.07;;;;;;;0.95;81.12;100630.64;1772711;78;21167;-56
2020/12/02 03:47:05;;;;;;;18.77;10.43;;;;;;;0.96;81.13;100622.25;1774620;80;21815;-57
2020/12/02 03:49:32;;;;;;;16.83;10.37;;;;;;;0.97;81.10;100626.25;1779244;78;21190;-57
2020/12/02 03:51:59;;;;;;;16.07;9.43;;;;;;;0.97;81.03;100622.70;1776304;78;21195;-59
2020/12/02 03:54:26;;;;;;;13.00;7.53;;;;;;;0.96;80.97;100623.14;1772921;78;21206;-57
2020/12/02 03:56:55;;;;;;;13.67;7.47;;;;;;;0.93;80.79;100623.16;1773940;78;21514;-57
2020/12/02 03:59:22;;;;;;;12.60;8.30;;;;;;;0.93;80.83;100625.80;1779823;78;21284;-56
2020/12/02 04:01:50;;;;;;;14.97;8.07;;;;;;;0.93;80.85;100618.29;1775382;78;21210;-56
2020/12/02 04:04:17;;;;;;;9.73;6.03;;;;;;;0.94;80.84;100624.00;1773432;79;21198;-58
2020/12/02 04:06:44;;;;;;;11.87;7.30;;;;;;;0.95;80.81;100631.09;1773045;80;21820;-58
2020/12/02 04:09:12;;;;;;;9.47;6.30;;;;;;;0.94;80.73;100620.92;1773611;80;21197;-56
2020/12/02 04:11:39;;;;;;;7.53;5.93;;;;;;;0.94;80.67;100629.31;1771276;80;21622;-57
2020/12/02 04:14:06;;;;;;;7.87;4.80;;;;;;;0.92;80.61;100637.28;1767780;79;22135;-59
2020/12/02 04:16:33;;;;;;;8.37;5.10;;;;;;;0.91;80.54;100633.30;1767319;79;21190;-56
2020/12/02 04:19:00;;;;;;;8.37;4.70;;;;;;;0.85;80.32;100635.92;1770685;79;21190;-57
2020/12/02 04:21:27;;;;;;;8.73;5.30;;;;;;;0.78;80.49;100636.30;1770759;79;21809;-55
2020/12/02 04:23:55;;;;;;;11.67;6.03;;;;;;;0.75;80.54;100637.20;1768723;79;22633;-58
2020/12/02 04:26:26;;;;;;;9.73;6.93;;;;;;;0.75;80.52;100634.98;1773961;79;21150;-59
2020/12/02 04:28:54;;;;;;;13.30;8.20;;;;;;;0.75;80.51;100637.64;1771645;80;21087;-58
2020/12/02 04:31:21;;;;;;;13.43;7.80;;;;;;;0.71;80.13;100636.72;1772787;80;21798;-57
2020/12/02 04:33:48;;;;;;;13.17;8.47;;;;;;;0.61;80.30;100639.30;1768653;79;21187;-60
2020/12/02 04:36:16;;;;;;;12.57;7.70;;;;;;;0.60;80.42;100637.08;1775614;79;21466;-56
2020/12/02 04:38:43;;;;;;;14.93;8.97;;;;;;;0.61;80.36;100636.21;1778149;80;21126;-58
2020/12/02 04:41:15;;;;;;;12.50;8.10;;;;;;;0.60;80.20;100638.41;1774955;80;21514;-59
2020/12/02 04:43:47;;;;;;;16.53;9.60;;;;;;;0.59;80.11;100635.78;1770378;80;21200;-58
2020/12/02 04:46:19;;;;;;;17.23;9.70;;;;;;;0.57;80.11;100633.12;1768452;79;21251;-58
2020/12/02 04:48:51;;;;;;;15.37;9.03;;;;;;;0.50;79.96;100634.39;1772689;79;21722;-58
2020/12/02 04:51:27;;;;;;;17.30;9.57;;;;;;;0.43;80.04;100634.77;1750151;80;21301;-55
2020/12/02 04:53:57;;;;;;;14.40;8.90;;;;;;;0.39;80.23;100631.67;1774236;80;21174;-56
2020/12/02 04:56:25;;;;;;;14.07;8.77;;;;;;;0.40;80.32;100627.26;1774055;79;21075;-54
2020/12/02 04:58:54;;;;;;;13.00;8.33;;;;;;;0.40;80.32;100628.15;1775056;80;21709;-56
2020/12/02 05:01:29;;;;;;;14.53;9.23;;;;;;;0.40;80.30;100636.09;1775340;79;21213;-56
2020/12/02 05:04:03;;;;;;;11.57;7.05;;;;;;;0.42;80.16;100636.11;1770756;80;21183;-59
2020/12/02 05:06:42;;;;;;;13.32;7.40;;;;;;;0.36;80.07;100632.52;1776069;79;21496;-56
2020/12/02 05:09:19;;;;;;;10.73;6.77;;;;;;;0.35;80.05;100633.83;1776488;79;21127;-57
2020/12/02 05:12:04;;;;;;;28.30;9.43;;;;;;;0.33;80.00;100635.61;1774181;80;22425;-56
2020/12/02 05:14:41;;;;;;;12.83;6.13;;;;;;;0.33;80.05;100635.61;1773202;79;21030;-59
2020/12/02 05:17:27;;;;;;;10.07;5.13;;;;;;;0.34;80.04;100642.21;1775819;79;21134;-56
2020/12/02 05:20:14;;;;;;;13.17;5.50;;;;;;;0.37;79.98;100647.98;1776509;79;21142;-59
2020/12/02 05:22:47;;;;;;;10.07;5.17;;;;;;;0.40;79.94;100645.80;1779310;79;21150;-58
2020/12/02 05:25:31;;;;;;;10.90;6.73;;;;;;;0.43;79.87;100651.09;1776129;79;20977;-59
2020/12/02 05:28:16;;;;;;;11.38;6.40;;;;;;;0.38;79.77;100641.38;1775136;79;21369;-57
2020/12/02 05:30:43;;;;;;;12.20;6.12;;;;;;;0.35;79.85;100645.75;1778476;79;20996;-58
2020/12/02 05:33:16;;;;;;;14.07;7.37;;;;;;;0.35;79.79;100641.34;1775426;79;21170;-56
2020/12/02 05:36:01;;;;;;;13.47;7.03;;;;;;;0.35;79.79;100645.75;1739498;81;21124;-56
2020/12/02 05:38:37;;;;;;;13.15;7.95;;;;;;;0.34;79.77;100644.86;1725267;81;21210;-57
2020/12/02 05:41:08;;;;;;;14.13;6.93;;;;;;;0.34;79.79;100650.16;1774237;80;21396;-56
2020/12/02 05:43:45;;;;;;;11.70;6.07;;;;;;;0.34;79.73;100658.11;1745451;79;21227;-56
2020/12/02 05:46:33;;;;;;;12.27;7.10;;;;;;;0.36;79.68;100658.13;1773934;79;21755;-55
2020/12/02 05:49:08;;;;;;;16.23;7.60;;;;;;;0.34;79.67;100660.75;1774330;79;21175;-56
2020/12/02 05:51:35;;;;;;;14.65;7.28;;;;;;;0.33;79.73;100654.15;1748729;80;21191;-58
2020/12/02 05:54:10;;;;;;;20.03;8.40;;;;;;;0.33;79.68;100659.01;1773681;79;21727;-59
2020/12/02 05:56:37;;;;;;;20.77;8.20;;;;;;;0.34;79.66;100657.25;1726603;79;21578;-58
2020/12/02 06:00:21;;;;;;;14.40;7.67;;;;;;;0.35;79.56;100653.70;1858967;75;26736;-56
2020/12/02 06:02:48;;;;;;;16.37;8.70;;;;;;;0.25;79.70;100663.80;1838045;77;22257;-54
2020/12/02 06:05:15;;;;;;;12.57;7.43;;;;;;;0.23;79.75;100657.59;1810101;77;21354;-56
2020/12/02 06:07:49;;;;;;;17.40;7.93;;;;;;;0.22;79.80;100665.97;1841978;77;21198;-56
2020/12/02 06:10:24;;;;;;;15.23;7.73;;;;;;;0.23;79.76;100672.16;1836153;77;21213;-55
2020/12/02 06:12:52;;;;;;;13.47;7.00;;;;;;;0.22;79.84;100673.03;1843441;77;21452;-56
2020/12/02 06:15:23;;;;;;;14.40;7.60;;;;;;;0.20;79.87;100673.45;1844269;77;21142;-55
2020/12/02 06:17:54;;;;;;;18.47;9.50;;;;;;;0.17;79.98;100675.62;1842789;77;21021;-56
2020/12/02 06:20:26;;;;;;;18.30;8.13;;;;;;;0.18;79.97;100679.16;1812388;77;20957;-56
2020/12/02 06:22:54;;;;;;;13.87;8.23;;;;;;;0.16;80.01;100682.25;1809986;77;21173;-55
2020/12/02 06:25:51;;;;;;;15.20;7.17;;;;;;;0.17;80.08;100672.97;1847671;77;21186;-55
2020/12/02 06:28:42;;;;;;;12.60;6.83;;;;;;;0.18;80.14;100673.42;1820876;77;21653;-55
2020/12/02 06:31:26;;;;;;;14.90;7.00;;;;;;;0.20;80.13;100674.34;1754087;80;21640;-56
2020/12/02 06:33:54;;;;;;;12.55;6.20;;;;;;;0.23;80.12;100677.02;1753066;80;21150;-58
2020/12/02 06:36:29;;;;;;;14.27;6.97;;;;;;;0.23;80.09;100674.81;1748504;80;21106;-57
2020/12/02 06:39:13;;;;;;;11.22;6.65;;;;;;;0.22;80.04;100677.00;1757914;80;21619;-57
2020/12/02 06:41:44;;;;;;;;;;;;;;;0.21;80.07;100679.19;1758577;80;21813;-58
2020/12/02 06:44:17;;;;;;;10.03;5.10;;;;;;;0.19;80.08;100676.53;1750470;80;21161;-55
2020/12/02 06:47:08;;;;;;;9.83;4.97;;;;;;;0.18;80.06;100676.08;1752947;80;22005;-56
2020/12/02 06:49:37;;;;;;;9.47;5.43;;;;;;;0.16;80.10;100673.88;1750085;80;21182;-54
2020/12/02 06:52:28;;;;;;;11.00;6.37;;;;;;;0.19;80.17;100678.28;1752840;80;21567;-53
2020/12/02 06:55:12;;;;;;;7.97;4.80;;;;;;;0.20;80.15;100683.59;1755805;80;21184;-54
2020/12/02 06:57:40;;;;;;;11.97;5.20;;;;;;;0.22;80.13;100682.30;1754303;80;21584;-55
2020/12/02 07:00:15;;;;;;;7.50;3.80;;;;;;;0.21;80.12;100676.11;1755274;80;21628;-54
2020/12/02 07:02:57;;;;;;;;;;;;;;;0.22;80.19;100677.00;1756727;80;21135;-55
2020/12/02 07:05:39;;;;;;;8.43;4.07;;;;;;;0.23;80.18;100679.66;1753244;80;20296;-55
2020/12/02 07:08:34;;;;;;;8.67;3.70;;;;;;;0.25;80.16;100675.72;1751943;80;21198;-54
2020/12/02 07:11:10;;;;;;;6.63;3.37;;;;;;;0.28;80.20;100674.39;1705455;82;21871;-56
2020/12/02 07:13:41;;;;;;;8.50;3.50;;;;;;;0.31;80.16;100682.38;1705906;82;21228;-54
2020/12/02 07:16:28;;;;;;;7.63;4.60;;;;;;;0.32;80.12;100682.39;1704104;82;21513;-58
2020/12/02 07:19:05;;;;;;;7.63;4.53;;;;;;;0.33;80.07;100684.60;1704394;82;21533;-56
2020/12/02 07:21:53;;;;;;;10.17;4.93;;;;;;;0.35;80.04;100677.53;1702826;82;21213;-57
2020/12/02 07:24:40;;;;;;;8.40;4.17;;;;;;;0.35;80.03;100685.47;1710374;82;22801;-58
2020/12/02 07:27:07;;;;;;;8.70;3.97;;;;;;;0.37;80.00;100680.65;1683402;82;21536;-54
2020/12/02 07:29:35;;;;;;;7.80;4.40;;;;;;;0.41;79.94;100676.71;1699000;82;21209;-57
2020/12/02 07:32:15;;;;;;;5.30;2.70;;;;;;;0.42;79.88;100678.05;1698831;82;21787;-57
2020/12/02 07:34:43;;;;;;;9.33;4.37;;;;;;;0.45;79.90;100679.81;1707218;82;21636;-57
2020/12/02 07:37:16;;;;;;;6.47;4.10;;;;;;;0.45;79.89;100680.70;1700626;82;21160;-56
2020/12/02 07:39:54;;;;;;;7.37;4.05;;;;;;;0.48;79.82;100682.50;1674935;84;21190;-56
2020/12/02 07:42:25;;;;;;;7.37;4.03;;;;;;;0.48;79.72;100678.09;1699297;82;21444;-56
2020/12/02 07:45:18;;;;;;;7.33;4.03;;;;;;;0.45;79.63;100682.03;1672784;84;21149;-54
2020/12/02 07:47:54;;;;;;;8.47;4.63;;;;;;;0.43;79.66;100681.13;1669002;84;21225;-54
2020/12/02 07:50:36;;;;;;;12.23;4.30;;;;;;;0.42;79.65;100681.14;1668915;84;21683;-57
2020/12/02 07:53:15;;;;;;;7.87;5.13;;;;;;;0.44;79.71;100684.66;1669427;84;21257;-55
2020/12/02 07:55:48;;;;;;;8.33;4.67;;;;;;;0.45;79.78;100689.97;1699586;82;21147;-56
2020/12/02 07:58:31;;;;;;;12.17;5.97;;;;;;;0.46;79.84;100697.05;1707650;82;21247;-56
2020/12/02 08:01:09;;;;;;;10.53;4.87;;;;;;;0.46;79.82;100689.10;1707050;82;21151;-56
2020/12/02 08:03:38;;;;;;;8.63;5.03;;;;;;;0.49;79.78;100689.14;1699765;82;21779;-56
2020/12/02 08:06:21;;;;;;;5.57;3.97;;;;;;;0.49;79.66;100688.25;1700679;82;21233;-55
2020/12/02 08:08:48;;;;;;;8.13;4.40;;;;;;;0.47;79.68;100684.69;1702838;82;21534;-55
2020/12/02 08:11:16;;;;;;;8.47;4.60;;;;;;;0.50;79.67;100681.64;1677024;84;21438;-55
2020/12/02 08:13:53;;;;;;;7.50;5.50;;;;;;;0.53;79.61;100682.97;1678537;83;21203;-58
2020/12/02 08:16:28;;;;;;;9.30;5.30;;;;;;;0.54;79.56;100682.09;1714061;82;22754;-54
2020/12/02 08:18:57;;;;;;;10.73;5.27;;;;;;;0.55;79.56;100679.90;1710078;81;21049;-58
2020/12/02 08:21:26;;;;;;;8.73;5.17;;;;;;;0.53;79.55;100680.31;1717254;81;21153;-57
2020/12/02 08:24:17;;;;;;;7.43;4.23;;;;;;;0.55;79.53;100681.66;1710640;81;21645;-55
2020/12/02 08:26:44;;;;;;;5.50;3.60;;;;;;;0.53;79.47;100676.78;1683010;82;21248;-58
2020/12/02 08:29:11;;;;;;;7.47;3.97;;;;;;;0.51;79.37;100679.88;1713657;81;21249;-55
2020/12/02 08:31:39;;;;;;;8.57;4.90;;;;;;;0.47;79.38;100671.45;1715424;81;21483;-56
2020/12/02 08:34:27;;;;;;;9.00;5.77;;;;;;;0.46;79.39;100673.64;1715579;81;21348;-57
2020/12/02 08:37:16;;;;;;;11.57;5.63;;;;;;;0.44;79.42;100671.41;1709124;81;21290;-58
2020/12/02 08:39:45;;;;;;;4.80;3.50;;;;;;;0.45;79.50;100670.55;1715096;81;21520;-57
2020/12/02 08:42:32;;;;;;;9.80;4.37;;;;;;;0.47;79.48;100666.16;1713864;81;21483;-56
2020/12/02 08:45:16;;;;;;;9.33;4.70;;;;;;;0.46;79.48;100662.61;1718446;81;21156;-58
2020/12/02 08:47:43;;;;;;;7.00;4.63;;;;;;;0.49;79.57;100665.73;1717837;81;21163;-55
2020/12/02 08:50:22;;;;;;;8.87;4.47;;;;;;;0.52;79.52;100663.08;1714489;81;21426;-56
2020/12/02 08:52:54;;;;;;;7.33;4.10;;;;;;;0.52;79.42;100656.02;1714303;81;21445;-56
2020/12/02 08:55:21;;;;;;;8.20;5.03;;;;;;;0.52;79.42;100657.78;1716095;82;21201;-57
2020/12/02 08:57:49;;;;;;;10.33;5.57;;;;;;;0.51;79.38;100657.37;1723457;81;21036;-57
2020/12/02 09:00:18;;;;;;;9.73;4.40;;;;;;;0.52;79.44;100656.02;1708749;81;21225;-55
2020/12/02 09:02:45;;;;;;;10.03;4.73;;;;;;;0.52;79.47;100656.02;1715705;81;21120;-57
2020/12/02 09:05:13;;;;;;;7.87;5.27;;;;;;;0.56;79.50;100652.97;1715196;81;21110;-55
2020/12/02 09:07:40;;;;;;;14.43;5.40;;;;;;;0.61;79.53;100653.44;1718246;81;21203;-55
2020/12/02 09:10:07;;;;;;;8.77;4.30;;;;;;;0.63;79.50;100649.48;1713611;81;21245;-57
2020/12/02 09:12:34;;;;;;;9.13;5.63;;;;;;;0.66;79.45;100649.07;1717830;81;21414;-55
2020/12/02 09:15:02;;;;;;;9.40;5.03;;;;;;;0.70;79.37;100649.95;1720881;81;21189;-60
2020/12/02 09:17:30;;;;;;;8.87;5.10;;;;;;;0.74;79.32;100649.11;1690255;83;21997;-59
2020/12/02 09:19:57;;;;;;;9.33;5.10;;;;;;;0.73;79.18;100648.22;1673483;84;22194;-58
2020/12/02 09:22:24;;;;;;;12.07;5.90;;;;;;;0.76;79.23;100650.02;1683880;83;21147;-55
2020/12/02 09:24:51;;;;;;;8.80;5.60;;;;;;;0.77;79.30;100645.12;1688846;83;21190;-56
2020/12/02 09:27:18;;;;;;;9.13;5.23;;;;;;;0.82;79.26;100645.17;1686003;83;22285;-56
2020/12/02 09:29:46;;;;;;;9.17;5.17;;;;;;;0.86;79.20;100651.81;1686064;83;21662;-59
2020/12/02 09:32:13;;;;;;;9.63;5.70;;;;;;;0.88;79.08;100650.06;1686406;83;21262;-56
2020/12/02 09:34:40;;;;;;;10.07;5.50;;;;;;;0.89;78.98;100645.64;1689091;83;21682;-55
2020/12/02 09:37:10;;;;;;;10.87;6.33;;;;;;;0.89;78.87;100646.97;1658411;84;21190;-58
2020/12/02 09:39:39;;;;;;;13.47;6.27;;;;;;;0.85;78.77;100645.20;1689680;83;21212;-56
2020/12/02 09:42:25;;;;;;;9.70;5.90;;;;;;;0.84;78.71;100644.75;1669020;84;21416;-56
2020/12/02 09:45:10;;;;;;;9.40;5.87;;;;;;;0.83;78.66;100644.30;1686713;83;21799;-54
2020/12/02 09:47:38;;;;;;;11.67;6.40;;;;;;;0.83;78.68;100641.21;1678301;83;21514;-57
2020/12/02 09:50:07;;;;;;;11.17;7.20;;;;;;;0.83;78.66;100633.70;1679117;83;21210;-57
2020/12/02 09:52:44;;;;;;;13.77;6.50;;;;;;;0.83;78.69;100639.00;1679530;83;21130;-57
2020/12/02 09:55:23;;;;;;;11.00;6.77;;;;;;;0.82;78.73;100635.89;1679670;83;21459;-55
2020/12/02 09:57:54;;;;;;;11.40;7.43;;;;;;;0.82;78.74;100641.20;1678057;83;21876;-59
2020/12/02 10:00:22;;;;;;;10.90;7.23;;;;;;;0.83;78.72;100639.00;1680112;83;21212;-55
2020/12/02 10:03:30;;;;;;;14.00;7.83;;;;;;;0.84;78.80;100638.13;1679316;83;21558;-56
2020/12/02 10:06:33;;;;;;;13.37;6.43;;;;;;;0.83;78.73;100637.23;1675372;83;22266;-55
2020/12/02 10:09:27;;;;;;;13.77;7.30;;;;;;;0.85;78.68;100639.90;1676371;83;21735;-59
2020/12/02 10:12:39;;;;;;;10.43;5.60;;;;;;;0.87;78.77;100642.98;1680813;83;21213;-55
2020/12/02 10:15:26;;;;;;;11.43;7.07;;;;;;;0.89;78.69;100633.72;1676648;83;21178;-60
2020/12/02 10:18:08;;;;;;;11.63;6.63;;;;;;;0.91;78.70;100637.27;1661862;83;21635;-58
2020/12/02 10:20:50;;;;;;;12.13;7.57;;;;;;;0.92;78.71;100645.67;1676243;83;21476;-57
2020/12/02 10:23:50;;;;;;;10.90;7.53;;;;;;;0.92;78.63;100640.37;1679873;83;21206;-55
2020/12/02 10:26:34;;;;;;;11.83;7.43;;;;;;;0.91;78.56;100647.88;1677942;83;21431;-59
2020/12/02 10:29:10;;;;;;;16.00;9.25;;;;;;;0.88;78.45;100643.87;1681549;83;21271;-60
2020/12/02 10:31:44;;;;;;;19.13;9.20;;;;;;;0.85;78.50;100642.55;1683327;83;21535;-57
2020/12/02 10:34:27;;;;;;;17.93;9.00;;;;;;;0.86;78.48;100638.99;1681106;83;22380;-58
2020/12/02 10:36:59;;;;;;;22.37;11.57;;;;;;;0.87;78.51;100637.68;1681681;83;21190;-56
2020/12/02 10:39:30;;;;;;;17.63;8.97;;;;;;;0.87;78.63;100639.00;1680598;83;22872;-55
2020/12/02 10:42:21;;;;;;;21.23;11.47;;;;;;;0.87;78.57;100638.12;1677201;83;21512;-56
2020/12/02 10:45:13;;;;;;;16.10;8.73;;;;;;;0.88;78.62;100637.24;1679796;83;21936;-55
2020/12/02 10:48:21;;;;;;;15.43;8.53;;;;;;;0.87;78.64;100632.38;1679296;83;21822;-56
2020/12/02 10:50:51;;;;;;;14.77;8.67;;;;;;;0.87;78.66;100631.05;1681283;83;21134;-55
2020/12/02 10:53:24;;;;;;;14.47;8.47;;;;;;;0.87;78.74;100640.33;1677994;83;21822;-54
2020/12/02 10:55:53;;;;;;;;;;;;;;;0.86;78.79;100632.36;1680940;83;21274;-57
2020/12/02 10:58:29;;;;;;;20.27;10.10;;;;;;;0.88;78.88;100626.64;1675964;83;20318;-57
2020/12/02 11:00:59;;;;;;;13.40;7.23;;;;;;;0.90;78.90;100635.49;1680230;83;21262;-57
2020/12/02 11:03:33;;;;;;;10.03;7.43;;;;;;;0.91;78.97;100633.30;1673622;83;21205;-60
2020/12/02 11:06:09;;;;;;;11.68;6.83;;;;;;;0.93;79.00;100628.89;1675712;83;21227;-58
2020/12/02 11:09:00;;;;;;;12.63;7.93;;;;;;;0.95;78.98;100628.44;1677374;83;21251;-59
2020/12/02 11:11:41;;;;;;;12.37;7.60;;;;;;;0.96;78.96;100626.23;1674354;83;21206;-57
2020/12/02 11:14:35;;;;;;;15.67;9.20;;;;;;;0.96;79.00;100627.56;1670457;84;21202;-59
2020/12/02 11:17:26;;;;;;;13.07;8.57;;;;;;;0.94;78.94;100628.88;1750857;79;21158;-56
2020/12/02 11:20:07;;;;;;;14.13;8.93;;;;;;;0.94;78.94;100621.36;1723755;81;22979;-60
2020/12/02 11:23:13;;;;;;;17.70;9.17;;;;;;;0.92;78.98;100619.16;1757719;79;21944;-56
2020/12/02 11:28:22;;;;;;;9.63;7.57;;;;;;;0.97;79.07;100622.27;1828169;76;26809;-58
2020/12/02 11:30:51;;;;;;;13.97;7.30;;;;;;;0.96;79.02;100615.63;1799188;77;21166;-56
2020/12/02 11:33:54;;;;;;;14.67;8.07;;;;;;;0.95;79.02;100616.06;1797388;78;23370;-56
2020/12/02 11:36:32;;;;;;;13.40;8.87;;;;;;;0.96;78.99;100619.61;1797096;77;21057;-59
2020/12/02 11:39:11;;;;;;;13.53;7.47;;;;;;;0.95;79.07;100615.18;1794373;77;21180;-61
2020/12/02 11:41:56;;;;;;;14.53;8.63;;;;;;;0.96;79.01;100622.25;1801049;77;21173;-56
2020/12/02 11:44:41;;;;;;;12.57;7.27;;;;;;;0.94;79.01;100618.27;1800170;77;21509;-56
2020/12/02 11:47:35;;;;;;;11.07;6.93;;;;;;;0.96;79.04;100618.28;1781837;77;21338;-60
2020/12/02 11:50:15;;;;;;;11.57;7.12;;;;;;;0.97;79.07;100614.75;1740725;80;21627;-57
2020/12/02 11:53:00;;;;;;;10.67;7.03;;;;;;;1.00;79.10;100625.38;1741816;79;21225;-56
2020/12/02 11:55:29;;;;;;;11.13;7.70;;;;;;;1.02;79.06;100622.31;1795184;77;21155;-60
2020/12/02 11:57:56;;;;;;;13.40;8.07;;;;;;;1.02;79.07;100617.00;1794418;77;21759;-58
2020/12/02 12:00:24;;;;;;;14.37;9.00;;;;;;;1.01;79.06;100614.79;1796167;77;21529;-60
2020/12/02 12:03:19;;;;;;;15.53;9.17;;;;;;;0.99;79.13;100617.87;1796443;77;21179;-59
2020/12/02 12:06:10;;;;;;;14.30;7.40;;;;;;;1.00;79.18;100616.11;1794006;77;21549;-56
2020/12/02 12:08:45;;;;;;;11.80;8.23;;;;;;;1.01;79.20;100612.58;1797631;77;21454;-57
2020/12/02 12:11:29;;;;;;;14.30;9.07;;;;;;;1.01;79.24;100616.55;1799432;77;21119;-57